Current Conditions
Mostly Cloudy
Conditions



Rainfall
0.00 (mm) - 0.00 (in)
Pressure
1008.92 (hPa) - 29.79 (inHG)
Visibility

10.0 (km) - 6.2 (miles)
   Temperature
6  °C
43°F
6  °C
Dewpoint
100  %
 Humidity
   Wind Speed
2.2  m/s
5  mph
8  km/h
4  kts
   Wind Direction
 290°
West North
West
   Airport Data
ESMX
Location Växjö Kronoberg Airport 15 km (9.32 mi)
Metar :ESMX 190250Z AUTO 29004KT 9999 BKN074/// 06/06 Q1009
Wed 19th May 03:50 am
   Raw Metar Info
Raw METAR is the most common format in the world for the transmission of observational weather data. It is highly standardized through the International Civil Aviation Organization (ICAO), which allows it to be understood throughout most of the world.
   API Info
Data Provided by
https://www.checkwx.com/weather/ESMX
   © Info
CSS/SVG/PHP scripts were developed by weather34.com for use in the weather34 template © 2015-2021

Guide Info provided by Metar-Wikipedia